Time;durP1;ratioP1;P1;durP2;ratioP2;P2;SDS_P1;SDS_P2;PMS_P1;PMS_P2;Temp;Humidity;BMP_temperature;BMP_pressure;BME280_temperature;BME280_humidity;BME280_pressure;Samples;Min_cycle;Max_cycle;Signal;HPM_P1;HPM_P2
2023/10/28 00:01:03;;;;;;;22.17;11.68;;;10.10;99.90;;;;;;4970725;28;20040;-83
2023/10/28 00:03:29;;;;;;;21.98;11.45;;;10.20;99.90;;;;;;4986394;28;20046;-83
2023/10/28 00:05:55;;;;;;;22.33;12.70;;;10.20;99.90;;;;;;4987521;28;20058;-83
2023/10/28 00:08:21;;;;;;;19.35;11.10;;;10.20;99.90;;;;;;4985502;28;21245;-83
2023/10/28 00:10:52;;;;;;;24.65;12.73;;;10.20;99.90;;;;;;4970650;28;20113;-83
2023/10/28 00:13:18;;;;;;;;;;;10.20;99.90;;;;;;4972857;28;20045;-83
2023/10/28 00:15:44;;;;;;;22.85;12.43;;;10.20;99.90;;;;;;4978809;28;19961;-82
2023/10/28 00:18:10;;;;;;;23.48;12.45;;;10.20;99.90;;;;;;4990915;28;20041;-83
2023/10/28 00:20:36;;;;;;;21.90;12.60;;;10.20;99.90;;;;;;5006664;28;20103;-83
2023/10/28 00:23:06;;;;;;;26.92;14.30;;;10.20;99.90;;;;;;4992266;28;20105;-83
2023/10/28 00:25:32;;;;;;;24.83;13.32;;;10.20;99.90;;;;;;4992270;28;20089;-83
2023/10/28 00:27:59;;;;;;;25.02;14.00;;;10.20;99.90;;;;;;4990985;28;20068;-84
2023/10/28 00:30:26;;;;;;;28.50;15.98;;;10.20;99.90;;;;;;4990711;28;20189;-84
2023/10/28 00:32:53;;;;;;;28.73;15.32;;;10.20;99.90;;;;;;4990367;28;20046;-84
2023/10/28 00:35:21;;;;;;;27.17;14.40;;;10.20;99.90;;;;;;4992985;28;21487;-83
2023/10/28 00:37:47;;;;;;;25.48;14.65;;;10.20;99.90;;;;;;4975776;28;20119;-84
2023/10/28 00:40:13;;;;;;;29.08;16.15;;;10.20;99.90;;;;;;4991891;28;20045;-84
2023/10/28 00:42:39;;;;;;;31.00;17.30;;;10.30;99.90;;;;;;4966947;28;20057;-82
2023/10/28 00:45:08;;;;;;;30.20;16.30;;;10.30;99.90;;;;;;4971743;28;20054;-84
2023/10/28 00:47:38;;;;;;;31.50;17.85;;;10.30;99.90;;;;;;4990534;28;20054;-84
2023/10/28 00:50:12;;;;;;;30.73;17.08;;;10.30;99.90;;;;;;4970033;28;20404;-83
2023/10/28 00:52:41;;;;;;;33.60;17.63;;;10.30;99.90;;;;;;4976772;28;21084;-83
2023/10/28 00:55:11;;;;;;;34.53;19.08;;;10.30;99.90;;;;;;4993863;28;20096;-83
2023/10/28 00:57:41;;;;;;;34.00;18.20;;;10.30;99.90;;;;;;4989195;28;20038;-83
2023/10/28 01:00:08;;;;;;;37.40;19.38;;;10.30;99.90;;;;;;4996306;28;20046;-83
2023/10/28 01:02:39;;;;;;;38.80;19.95;;;10.30;99.90;;;;;;4988500;28;20046;-83
2023/10/28 01:05:09;;;;;;;37.55;20.17;;;10.20;99.90;;;;;;4976328;28;20056;-83
2023/10/28 01:07:36;;;;;;;44.05;22.55;;;10.30;99.90;;;;;;4973689;28;20285;-82
2023/10/28 01:10:03;;;;;;;39.67;21.75;;;10.30;99.90;;;;;;4974740;28;20041;-82
2023/10/28 01:12:29;;;;;;;38.85;22.73;;;10.30;99.90;;;;;;4988947;28;20056;-84
2023/10/28 01:14:56;;;;;;;45.65;24.42;;;10.30;99.90;;;;;;4990625;28;20038;-83
2023/10/28 01:17:25;;;;;;;44.22;23.83;;;10.30;99.90;;;;;;4990265;28;20053;-82
2023/10/28 01:19:54;;;;;;;48.45;24.75;;;10.30;99.90;;;;;;4972781;28;20049;-83
2023/10/28 01:22:26;;;;;;;45.72;24.42;;;10.30;99.90;;;;;;4986863;28;20095;-83
2023/10/28 01:24:52;;;;;;;46.42;25.67;;;10.30;99.90;;;;;;4969317;28;20064;-84
2023/10/28 01:27:19;;;;;;;46.92;24.42;;;10.30;99.90;;;;;;4973613;28;20046;-83
2023/10/28 01:29:46;;;;;;;48.53;24.60;;;10.30;99.90;;;;;;4971236;28;20529;-83
2023/10/28 01:32:12;;;;;;;53.10;26.13;;;10.30;99.90;;;;;;4984684;28;20049;-84
2023/10/28 01:34:50;;;;;;;49.17;25.38;;;10.30;99.90;;;;;;4972720;28;20517;-83
2023/10/28 01:37:20;;;;;;;46.60;24.92;;;10.30;99.90;;;;;;4974172;28;20045;-83
2023/10/28 01:39:48;;;;;;;48.85;26.98;;;10.30;99.90;;;;;;4987830;28;20137;-83
2023/10/28 01:42:18;;;;;;;48.25;25.77;;;10.30;99.90;;;;;;4967861;28;20259;-83
2023/10/28 01:44:45;;;;;;;50.75;25.27;;;10.30;99.90;;;;;;4970235;28;20050;-82
2023/10/28 01:47:11;;;;;;;47.70;25.92;;;10.20;99.90;;;;;;4987451;28;20624;-83
2023/10/28 01:49:38;;;;;;;45.78;24.25;;;10.20;99.90;;;;;;4992116;28;20084;-83
2023/10/28 01:52:07;;;;;;;52.17;26.55;;;10.20;99.90;;;;;;4979420;28;20042;-83
2023/10/28 01:54:34;;;;;;;46.97;25.83;;;10.20;99.90;;;;;;4993188;28;20045;-82
2023/10/28 01:57:06;;;;;;;46.97;25.30;;;10.20;99.90;;;;;;4971581;28;20050;-83
2023/10/28 01:59:33;;;;;;;50.40;25.38;;;10.20;99.90;;;;;;4977328;28;20052;-83
2023/10/28 02:02:02;;;;;;;45.28;25.65;;;10.20;99.90;;;;;;4994044;28;20467;-83
2023/10/28 02:04:28;;;;;;;47.65;26.42;;;10.20;99.90;;;;;;4973139;28;20136;-82
2023/10/28 02:06:54;;;;;;;46.85;26.17;;;10.30;99.90;;;;;;4991302;28;20057;-83
2023/10/28 02:09:19;;;;;;;54.38;25.65;;;10.20;99.90;;;;;;4977703;28;20041;-83
2023/10/28 02:11:47;;;;;;;43.78;25.48;;;10.20;99.90;;;;;;4988695;28;20042;-83
2023/10/28 02:14:13;;;;;;;42.50;24.77;;;10.20;99.90;;;;;;4988520;28;20046;-83
2023/10/28 02:16:39;;;;;;;46.22;24.73;;;10.20;99.90;;;;;;4973379;28;20050;-83
2023/10/28 02:19:05;;;;;;;45.15;25.33;;;10.30;99.90;;;;;;4976948;28;20459;-83
2023/10/28 02:21:32;;;;;;;46.05;25.15;;;10.20;99.90;;;;;;4989399;28;20041;-83
2023/10/28 02:23:59;;;;;;;40.08;23.23;;;10.30;99.90;;;;;;4989708;28;20373;-83
2023/10/28 02:26:25;;;;;;;50.80;25.08;;;10.20;99.90;;;;;;4972976;28;20065;-83
2023/10/28 02:28:51;;;;;;;51.50;25.45;;;10.10;99.90;;;;;;4991739;28;20046;-82
2023/10/28 02:31:17;;;;;;;41.38;23.55;;;10.10;99.90;;;;;;4971573;28;20038;-82
2023/10/28 02:33:43;;;;;;;44.17;24.83;;;10.10;99.90;;;;;;4972996;28;20107;-83
2023/10/28 02:36:09;;;;;;;41.58;23.55;;;10.10;99.90;;;;;;4990709;28;20128;-83
2023/10/28 02:38:35;;;;;;;43.42;23.73;;;10.10;99.90;;;;;;4994701;28;20158;-83
2023/10/28 02:41:00;;;;;;;41.67;23.75;;;10.00;99.90;;;;;;4988287;28;20076;-82
2023/10/28 02:43:26;;;;;;;47.53;24.50;;;10.00;99.90;;;;;;4987528;28;20061;-83
2023/10/28 02:45:52;;;;;;;45.38;23.80;;;10.00;99.90;;;;;;4987586;28;20680;-82
2023/10/28 02:48:18;;;;;;;45.88;23.65;;;10.00;99.90;;;;;;4990811;28;20069;-83
2023/10/28 02:50:43;;;;;;;45.50;23.65;;;10.40;99.90;;;;;;4975338;28;20284;-83
2023/10/28 02:53:09;;;;;;;45.80;23.58;;;10.00;99.90;;;;;;4992879;28;20100;-82
2023/10/28 02:55:35;;;;;;;45.33;22.15;;;10.00;99.90;;;;;;4990843;28;20046;-83
2023/10/28 02:58:01;;;;;;;46.83;22.23;;;10.00;99.90;;;;;;4988947;28;20121;-83
2023/10/28 03:00:27;;;;;;;41.65;21.25;;;9.90;99.90;;;;;;4986362;28;20521;-83
2023/10/28 03:02:55;;;;;;;44.72;21.77;;;10.00;99.90;;;;;;4974306;28;20046;-83
2023/10/28 03:05:24;;;;;;;47.38;22.50;;;9.90;99.90;;;;;;4973643;28;20041;-83
2023/10/28 03:07:53;;;;;;;40.75;21.35;;;9.90;99.90;;;;;;4972592;28;20483;-82
2023/10/28 03:10:20;;;;;;;41.88;22.02;;;9.90;99.90;;;;;;4972069;28;20049;-83
2023/10/28 03:12:47;;;;;;;42.17;20.98;;;9.90;99.90;;;;;;4973371;28;20056;-83
2023/10/28 03:15:13;;;;;;;35.78;20.48;;;9.90;99.90;;;;;;4987874;28;20422;-83
2023/10/28 03:17:39;;;;;;;37.47;20.75;;;9.80;99.90;;;;;;4973121;28;20037;-83
2023/10/28 03:20:10;;;;;;;37.28;20.25;;;9.90;99.90;;;;;;4975285;28;20410;-83
2023/10/28 03:22:36;;;;;;;;;;;9.80;99.90;;;;;;4987632;28;20037;-82
2023/10/28 03:25:03;;;;;;;35.97;19.27;;;9.80;99.90;;;;;;4990042;28;19940;-83
2023/10/28 03:27:29;;;;;;;34.90;19.98;;;9.80;99.90;;;;;;4989216;28;20615;-83
2023/10/28 03:29:55;;;;;;;35.15;19.63;;;9.80;99.90;;;;;;4989219;28;20177;-82
2023/10/28 03:32:21;;;;;;;42.15;20.20;;;9.80;99.90;;;;;;4973103;28;20490;-83
2023/10/28 03:34:47;;;;;;;38.28;19.20;;;9.70;99.90;;;;;;4985681;28;20049;-83
2023/10/28 03:37:13;;;;;;;38.33;19.25;;;9.80;99.90;;;;;;4985690;28;20045;-83
2023/10/28 03:39:39;;;;;;;37.47;18.58;;;10.20;99.90;;;;;;4986130;28;20038;-82
2023/10/28 03:42:07;;;;;;;34.70;17.92;;;9.70;99.90;;;;;;4970716;28;20443;-83
2023/10/28 03:44:33;;;;;;;39.25;18.70;;;9.70;99.90;;;;;;4984644;28;20562;-82
2023/10/28 03:46:59;;;;;;;36.30;18.35;;;9.70;99.90;;;;;;4970486;28;20588;-81
2023/10/28 03:49:27;;;;;;;36.22;19.15;;;9.70;99.90;;;;;;4987042;28;20068;-83
2023/10/28 03:51:53;;;;;;;34.00;18.67;;;9.70;99.90;;;;;;4969724;28;20104;-83
2023/10/28 03:54:18;;;;;;;30.98;17.65;;;9.70;99.90;;;;;;4987798;28;20430;-82
2023/10/28 03:56:44;;;;;;;30.75;17.20;;;9.70;99.90;;;;;;4985529;28;20037;-83
2023/10/28 03:59:10;;;;;;;32.85;17.95;;;9.70;99.90;;;;;;4985778;28;20046;-83
2023/10/28 04:01:35;;;;;;;35.05;17.60;;;9.70;99.90;;;;;;4986225;28;20064;-83
2023/10/28 04:04:01;;;;;;;33.67;17.60;;;9.60;99.90;;;;;;4971407;28;20048;-83
2023/10/28 04:06:27;;;;;;;33.95;17.65;;;9.60;99.90;;;;;;4987861;28;20042;-83
2023/10/28 04:08:53;;;;;;;27.98;17.15;;;9.90;99.90;;;;;;4987925;28;20049;-83
2023/10/28 04:11:18;;;;;;;34.35;17.65;;;9.60;99.90;;;;;;4987227;28;20050;-83
2023/10/28 04:13:45;;;;;;;35.20;17.33;;;9.60;99.90;;;;;;4987869;28;20490;-82
2023/10/28 04:16:11;;;;;;;32.95;16.88;;;9.70;99.90;;;;;;4989062;28;20042;-83
2023/10/28 04:18:37;;;;;;;35.03;17.42;;;9.60;99.90;;;;;;4971304;28;20042;-82
2023/10/28 04:21:03;;;;;;;32.45;16.52;;;9.70;99.90;;;;;;4970409;28;20404;-83
2023/10/28 04:23:28;;;;;;;41.00;17.50;;;9.60;99.90;;;;;;4971412;28;20173;-82
2023/10/28 04:25:54;;;;;;;37.83;17.73;;;9.70;99.90;;;;;;4983369;28;20037;-82
2023/10/28 04:28:21;;;;;;;34.58;16.38;;;9.80;99.90;;;;;;4982988;28;20100;-83
2023/10/28 04:30:57;;;;;;;33.40;18.67;;;9.50;99.90;;;;;;4970456;28;20196;-83
2023/10/28 04:33:24;;;;;;;32.00;17.75;;;9.50;99.90;;;;;;4988891;28;20088;-82
2023/10/28 04:35:54;;;;;;;37.33;19.80;;;9.50;99.90;;;;;;4987597;28;20434;-83
2023/10/28 04:38:21;;;;;;;34.38;17.48;;;9.50;99.90;;;;;;4986309;28;20124;-82
2023/10/28 04:40:48;;;;;;;34.67;17.98;;;9.50;99.90;;;;;;4975607;28;20321;-82
2023/10/28 04:43:14;;;;;;;33.35;18.95;;;9.50;99.90;;;;;;4988040;28;20391;-83
2023/10/28 04:45:43;;;;;;;31.55;18.00;;;9.50;99.90;;;;;;4966275;28;20092;-83
2023/10/28 04:48:10;;;;;;;32.38;18.38;;;9.70;99.90;;;;;;4985102;28;20505;-81
2023/10/28 04:50:36;;;;;;;32.90;17.73;;;9.50;99.90;;;;;;4987915;28;20103;-82
2023/10/28 04:53:02;;;;;;;41.80;18.63;;;9.50;99.90;;;;;;4986952;28;20053;-82
2023/10/28 04:55:27;;;;;;;33.13;18.48;;;9.50;99.90;;;;;;4972298;28;20054;-83
2023/10/28 04:57:53;;;;;;;37.03;18.80;;;9.50;99.90;;;;;;4977680;28;20129;-82
2023/10/28 05:00:21;;;;;;;36.47;18.48;;;9.50;99.90;;;;;;4987711;28;20042;-84
2023/10/28 05:02:48;;;;;;;34.20;19.20;;;9.50;99.90;;;;;;5004519;28;20073;-83
2023/10/28 05:05:14;;;;;;;46.28;19.92;;;9.50;99.90;;;;;;4987034;28;20041;-83
2023/10/28 05:07:40;;;;;;;32.97;18.80;;;9.50;99.90;;;;;;4976302;28;20049;-82
2023/10/28 05:10:09;;;;;;;38.53;18.23;;;9.50;99.90;;;;;;4994396;28;20046;-83
2023/10/28 05:12:35;;;;;;;37.50;18.88;;;9.50;99.90;;;;;;4993108;28;20082;-83
2023/10/28 05:15:01;;;;;;;35.75;18.92;;;9.50;99.90;;;;;;4992835;28;20084;-83
2023/10/28 05:17:27;;;;;;;41.42;19.13;;;9.50;99.90;;;;;;4999671;28;20529;-83
2023/10/28 05:19:52;;;;;;;39.75;20.30;;;9.50;99.90;;;;;;4993547;28;20045;-83
2023/10/28 05:22:19;;;;;;;36.92;19.88;;;9.50;99.90;;;;;;4977184;28;20049;-83
2023/10/28 05:24:47;;;;;;;43.20;19.83;;;9.60;99.90;;;;;;4996535;28;20584;-83
2023/10/28 05:27:13;;;;;;;37.58;20.20;;;9.70;99.90;;;;;;4995195;28;20042;-83
2023/10/28 05:29:39;;;;;;;36.05;19.77;;;9.60;99.90;;;;;;4979002;28;20049;-83
2023/10/28 05:32:05;;;;;;;42.00;20.17;;;9.60;99.90;;;;;;4993262;28;20053;-83
2023/10/28 05:34:30;;;;;;;44.75;19.45;;;9.60;99.90;;;;;;4995548;28;20044;-83
2023/10/28 05:36:56;;;;;;;37.67;19.23;;;9.60;99.90;;;;;;4993083;28;20081;-83
2023/10/28 05:39:22;;;;;;;43.58;19.65;;;9.60;99.90;;;;;;4974385;28;20897;-83
2023/10/28 05:41:51;;;;;;;41.05;19.75;;;9.60;99.90;;;;;;4989768;28;20579;-82
2023/10/28 05:44:17;;;;;;;36.03;18.65;;;9.60;99.90;;;;;;4976560;28;20073;-80
2023/10/28 05:46:44;;;;;;;36.42;19.05;;;9.60;99.90;;;;;;4995304;28;20080;-81
2023/10/28 05:49:12;;;;;;;38.22;19.23;;;9.60;99.90;;;;;;5010515;28;20045;-82
2023/10/28 05:51:38;;;;;;;45.85;18.95;;;9.60;99.90;;;;;;5008292;28;20034;-82
2023/10/28 05:54:04;;;;;;;38.63;19.35;;;9.60;99.90;;;;;;5001306;28;20040;-81
2023/10/28 05:56:30;;;;;;;43.00;20.05;;;9.70;99.90;;;;;;4978381;28;20413;-82
2023/10/28 05:58:58;;;;;;;42.95;19.70;;;9.60;99.90;;;;;;4988650;28;20050;-83
2023/10/28 06:01:27;;;;;;;49.95;19.98;;;9.70;99.90;;;;;;4976719;28;20506;-82
2023/10/28 06:03:52;;;;;;;41.67;19.45;;;9.70;99.90;;;;;;4978214;28;20456;-81
2023/10/28 06:06:18;;;;;;;38.55;19.48;;;9.70;99.90;;;;;;4981753;28;20046;-82
2023/10/28 06:08:44;;;;;;;42.17;20.40;;;9.80;99.90;;;;;;4992209;28;20054;-82
2023/10/28 06:11:09;;;;;;;41.58;19.85;;;9.70;99.90;;;;;;4970348;28;20124;-81
2023/10/28 06:13:36;;;;;;;44.60;19.15;;;9.70;99.90;;;;;;4970942;28;20069;-82
2023/10/28 06:16:02;;;;;;;38.70;20.25;;;9.40;99.90;;;;;;4979928;28;20042;-82
2023/10/28 06:18:29;;;;;;;36.75;20.52;;;9.70;99.90;;;;;;4983950;28;20054;-82
2023/10/28 06:20:55;;;;;;;37.25;19.70;;;9.70;99.90;;;;;;4976214;28;20049;-82
2023/10/28 06:23:21;;;;;;;40.38;20.23;;;9.80;99.90;;;;;;4971489;28;20541;-82
2023/10/28 06:25:47;;;;;;;37.60;19.60;;;9.80;99.90;;;;;;4973645;28;20482;-82
2023/10/28 06:28:13;;;;;;;35.97;19.83;;;9.80;99.90;;;;;;4982596;28;20081;-81
2023/10/28 06:30:47;;;;;;;36.15;19.63;;;9.70;99.90;;;;;;4964974;28;20395;-82
2023/10/28 06:33:13;;;;;;;37.95;19.05;;;9.70;99.90;;;;;;4967289;28;20889;-81
2023/10/28 06:35:39;;;;;;;33.97;17.75;;;9.70;99.90;;;;;;4986053;28;20041;-81
2023/10/28 06:38:06;;;;;;;43.65;19.23;;;9.80;99.90;;;;;;4982293;28;20058;-82
2023/10/28 06:40:32;;;;;;;40.22;19.58;;;9.80;99.90;;;;;;4988836;28;20045;-82
2023/10/28 06:42:58;;;;;;;36.17;18.50;;;10.00;99.90;;;;;;4970514;28;20516;-82
2023/10/28 06:45:25;;;;;;;38.05;18.05;;;9.80;99.90;;;;;;4969850;28;20049;-82
2023/10/28 06:47:51;;;;;;;37.78;17.80;;;9.80;99.90;;;;;;4970285;28;20136;-81
2023/10/28 06:50:19;;;;;;;31.85;17.73;;;9.80;99.90;;;;;;4986390;28;20045;-82
2023/10/28 06:52:49;;;;;;;28.65;16.73;;;9.80;99.90;;;;;;4984027;28;20503;-81
2023/10/28 06:55:15;;;;;;;32.85;16.85;;;9.90;99.90;;;;;;4970614;28;20291;-81
2023/10/28 06:57:41;;;;;;;32.08;15.63;;;9.90;99.90;;;;;;4986992;28;20449;-82
2023/10/28 07:00:15;;;;;;;32.08;15.85;;;9.90;99.90;;;;;;4986039;28;20137;-82
2023/10/28 07:02:42;;;;;;;26.92;14.60;;;9.90;99.90;;;;;;4967848;28;20573;-81
2023/10/28 07:05:09;;;;;;;30.08;15.25;;;9.90;99.90;;;;;;4974156;28;20045;-82
2023/10/28 07:07:38;;;;;;;28.58;13.75;;;9.90;99.90;;;;;;4988866;28;20056;-81
2023/10/28 07:10:05;;;;;;;25.90;13.63;;;9.90;99.90;;;;;;4972302;28;20089;-82
2023/10/28 07:12:31;;;;;;;29.08;14.20;;;9.90;99.90;;;;;;4991235;28;20510;-81
2023/10/28 07:14:58;;;;;;;21.30;12.82;;;10.00;99.90;;;;;;4986632;28;20046;-81
2023/10/28 07:17:24;;;;;;;24.92;12.57;;;9.90;99.90;;;;;;4972915;28;20077;-81
2023/10/28 07:19:52;;;;;;;22.35;11.85;;;10.00;99.90;;;;;;4972542;28;20038;-81
2023/10/28 07:22:20;;;;;;;23.23;11.93;;;9.90;99.90;;;;;;4969554;28;20037;-81
2023/10/28 07:24:47;;;;;;;19.45;11.82;;;10.00;99.90;;;;;;4963381;28;20562;-82
2023/10/28 07:27:13;;;;;;;25.45;11.73;;;10.00;99.90;;;;;;4963002;28;20042;-82
2023/10/28 07:29:38;;;;;;;26.55;11.65;;;10.00;99.90;;;;;;4976827;28;20049;-82
2023/10/28 07:32:06;;;;;;;19.95;10.85;;;10.10;99.90;;;;;;4977550;28;20297;-82
2023/10/28 07:34:32;;;;;;;20.58;11.43;;;10.00;99.90;;;;;;4958209;28;20039;-81
2023/10/28 07:37:03;;;;;;;19.05;10.20;;;10.00;99.90;;;;;;4973839;28;20057;-81
2023/10/28 07:39:29;;;;;;;22.63;11.10;;;10.10;99.90;;;;;;4954159;28;20317;-81
2023/10/28 07:41:56;;;;;;;17.40;10.60;;;10.10;99.90;;;;;;4986934;28;20054;-81
2023/10/28 07:44:22;;;;;;;19.60;10.15;;;10.10;99.90;;;;;;4977319;28;20058;-81
2023/10/28 07:46:48;;;;;;;17.10;9.35;;;10.10;99.90;;;;;;4962940;28;20077;-81
2023/10/28 07:49:14;;;;;;;18.23;9.82;;;10.10;99.90;;;;;;4967208;28;20586;-81
2023/10/28 07:51:40;;;;;;;18.10;9.13;;;10.10;99.90;;;;;;4975631;28;20038;-80
2023/10/28 07:54:06;;;;;;;16.88;9.68;;;10.10;99.90;;;;;;4964793;28;20045;-81
2023/10/28 07:56:32;;;;;;;18.40;9.35;;;10.10;99.90;;;;;;4984349;28;20050;-81
2023/10/28 07:59:00;;;;;;;17.42;9.32;;;10.20;99.90;;;;;;4976319;28;20394;-80
2023/10/28 08:01:31;;;;;;;14.60;9.98;;;10.20;99.90;;;;;;4955355;28;20038;-81
2023/10/28 08:03:59;;;;;;;24.48;10.10;;;10.30;99.90;;;;;;4958116;28;20412;-81
2023/10/28 08:06:25;;;;;;;19.63;9.57;;;10.30;99.90;;;;;;4959921;28;20041;-81
2023/10/28 08:08:54;;;;;;;14.23;7.78;;;10.40;99.90;;;;;;4961205;28;20124;-81
2023/10/28 08:11:27;;;;;;;16.23;7.35;;;10.40;99.90;;;;;;4961623;28;20402;-80
2023/10/28 08:13:55;;;;;;;16.73;7.45;;;10.50;99.90;;;;;;4977431;28;20065;-81
2023/10/28 08:16:21;;;;;;;13.02;6.78;;;10.50;99.90;;;;;;4959050;28;20459;-81
2023/10/28 08:18:47;;;;;;;14.43;6.57;;;10.60;99.90;;;;;;4965823;28;20046;-81
2023/10/28 08:21:14;;;;;;;14.18;7.50;;;10.50;99.90;;;;;;4966538;28;20042;-79
2023/10/28 08:23:40;;;;;;;15.82;6.82;;;10.50;99.90;;;;;;4975475;28;20050;-80
2023/10/28 08:26:10;;;;;;;16.55;7.28;;;10.50;99.90;;;;;;4959279;28;20207;-80
2023/10/28 08:28:37;;;;;;;11.60;6.35;;;10.60;99.90;;;;;;4964053;28;20077;-80
2023/10/28 08:31:07;;;;;;;14.25;6.30;;;10.60;99.90;;;;;;4984148;28;21521;-82
2023/10/28 08:33:36;;;;;;;14.40;6.65;;;10.60;99.90;;;;;;4971913;28;20529;-80
2023/10/28 08:36:04;;;;;;;18.75;6.95;;;10.60;99.90;;;;;;4962730;28;20076;-80
2023/10/28 08:38:32;;;;;;;10.07;5.88;;;10.60;99.90;;;;;;4979527;28;20930;-80
2023/10/28 08:40:59;;;;;;;16.27;6.45;;;10.60;99.90;;;;;;4981628;28;20125;-81
2023/10/28 08:43:26;;;;;;;12.48;6.70;;;10.50;99.90;;;;;;4975050;28;20405;-80
2023/10/28 08:45:56;;;;;;;12.77;6.85;;;10.50;99.90;;;;;;4965458;28;20500;-81
2023/10/28 08:48:22;;;;;;;13.95;6.60;;;10.50;99.90;;;;;;4984091;28;20052;-80
2023/10/28 08:51:00;;;;;;;13.75;6.88;;;10.50;99.90;;;;;;4967366;28;20042;-81
2023/10/28 08:53:26;;;;;;;13.82;7.10;;;10.50;99.90;;;;;;4983234;28;20065;-80
2023/10/28 08:55:53;;;;;;;12.05;6.65;;;10.60;99.90;;;;;;4963595;28;20042;-79
2023/10/28 08:58:23;;;;;;;15.23;6.40;;;10.60;99.90;;;;;;4967251;28;20097;-79
2023/10/28 09:00:50;;;;;;;17.95;7.18;;;10.60;99.90;;;;;;4964725;28;20433;-81
2023/10/28 09:03:22;;;;;;;12.45;5.88;;;10.80;99.90;;;;;;4964652;28;20543;-80
2023/10/28 09:05:52;;;;;;;12.30;6.50;;;10.60;99.90;;;;;;4977668;28;20833;-81
2023/10/28 09:08:23;;;;;;;15.45;6.53;;;10.60;99.90;;;;;;4968287;28;20510;-81
2023/10/28 09:10:49;;;;;;;13.00;6.65;;;10.60;99.90;;;;;;4977670;28;20049;-81
2023/10/28 09:13:15;;;;;;;13.05;5.85;;;10.60;99.90;;;;;;4982492;28;20049;-81
2023/10/28 09:15:41;;;;;;;12.30;6.35;;;10.60;99.90;;;;;;4976193;28;20042;-80
2023/10/28 09:18:10;;;;;;;11.13;6.15;;;10.60;99.90;;;;;;4977842;28;20045;-80
2023/10/28 09:20:41;;;;;;;11.68;5.97;;;10.60;99.90;;;;;;4975819;28;20053;-80
2023/10/28 09:23:07;;;;;;;11.52;6.45;;;11.00;99.90;;;;;;4964195;28;20129;-81
2023/10/28 09:25:34;;;;;;;14.80;5.47;;;10.70;99.90;;;;;;4976833;28;20046;-81
2023/10/28 09:28:03;;;;;;;10.50;6.03;;;10.70;99.90;;;;;;4978294;28;20045;-81
2023/10/28 09:30:28;;;;;;;11.95;6.20;;;10.70;99.90;;;;;;4973844;28;20147;-80
2023/10/28 09:32:55;;;;;;;12.55;6.25;;;10.70;99.90;;;;;;4955623;28;20113;-81
2023/10/28 09:35:25;;;;;;;11.13;6.30;;;10.70;99.90;;;;;;4973654;28;20042;-81
2023/10/28 09:37:51;;;;;;;9.50;5.93;;;10.70;99.90;;;;;;4975187;28;20061;-81
2023/10/28 09:40:17;;;;;;;17.48;5.80;;;10.70;99.90;;;;;;4974998;28;20501;-80
2023/10/28 09:42:44;;;;;;;11.38;5.88;;;10.70;99.90;;;;;;4979062;28;20061;-81
2023/10/28 09:45:10;;;;;;;11.85;5.63;;;10.80;99.90;;;;;;4980344;28;20046;-81
2023/10/28 09:47:58;;;;;;;12.52;5.32;;;10.80;99.90;;;;;;4973890;28;20053;-79
2023/10/28 09:50:25;;;;;;;11.50;5.38;;;10.80;99.90;;;;;;4965344;28;20078;-79
2023/10/28 09:52:56;;;;;;;11.65;5.20;;;10.80;99.90;;;;;;4968877;28;20077;-79
2023/10/28 09:55:49;;;;;;;10.15;5.03;;;10.90;99.90;;;;;;5000175;28;20053;-80
2023/10/28 09:58:33;;;;;;;12.98;5.22;;;10.90;99.90;;;;;;4978847;28;20064;-80
2023/10/28 10:01:07;;;;;;;13.80;5.03;;;10.90;99.90;;;;;;4979533;28;20434;-81
2023/10/28 10:03:49;;;;;;;10.52;4.53;;;10.90;99.90;;;;;;4986774;28;20096;-80
2023/10/28 10:06:15;;;;;;;10.02;4.68;;;10.90;99.90;;;;;;4983903;28;20089;-80
2023/10/28 10:08:50;;;;;;;12.90;4.72;;;10.90;99.90;;;;;;4984585;28;20053;-80
2023/10/28 10:11:24;;;;;;;11.73;5.20;;;11.10;99.90;;;;;;4960704;28;20042;-80
2023/10/28 10:13:53;;;;;;;11.23;5.00;;;10.90;99.90;;;;;;4967017;28;20042;-79
2023/10/28 10:16:22;;;;;;;10.02;5.05;;;11.00;99.90;;;;;;4967962;28;20243;-79
2023/10/28 10:18:53;;;;;;;11.80;4.85;;;11.00;99.90;;;;;;4966885;28;20407;-79
2023/10/28 10:21:19;;;;;;;9.80;4.75;;;11.00;99.90;;;;;;4984809;28;20085;-79
2023/10/28 10:23:49;;;;;;;12.68;4.90;;;11.00;99.90;;;;;;4983055;28;20152;-79
2023/10/28 10:26:32;;;;;;;14.75;5.30;;;11.00;99.90;;;;;;4980854;28;20053;-79
2023/10/28 10:28:59;;;;;;;9.02;4.10;;;11.00;99.90;;;;;;4970120;28;20041;-79
2023/10/28 10:31:34;;;;;;;14.60;4.95;;;11.00;99.90;;;;;;4983950;28;20046;-78
2023/10/28 10:34:01;;;;;;;14.85;4.72;;;11.00;99.90;;;;;;4982114;28;20426;-77
2023/10/28 10:36:29;;;;;;;12.57;4.50;;;11.10;99.90;;;;;;4984483;28;20049;-79
2023/10/28 10:38:54;;;;;;;12.15;4.45;;;11.10;99.90;;;;;;4981675;28;20045;-79
2023/10/28 10:41:28;;;;;;;11.98;4.57;;;11.10;99.90;;;;;;4990391;28;20038;-79
2023/10/28 10:43:54;;;;;;;14.25;5.00;;;11.20;99.90;;;;;;4981009;28;20061;-80
2023/10/28 10:46:19;;;;;;;9.90;4.13;;;11.10;99.90;;;;;;4979386;28;20069;-79
2023/10/28 10:48:47;;;;;;;12.02;4.85;;;11.10;99.90;;;;;;4969314;28;20049;-81
2023/10/28 10:51:15;;;;;;;15.43;6.45;;;11.10;99.90;;;;;;4981418;28;20052;-80
2023/10/28 10:53:42;;;;;;;11.13;4.13;;;11.20;99.90;;;;;;4957686;28;20048;-80
2023/10/28 10:56:18;;;;;;;13.23;4.40;;;11.10;99.90;;;;;;4980842;28;20600;-80
2023/10/28 10:58:44;;;;;;;15.32;4.70;;;11.10;99.90;;;;;;4963923;28;20107;-80
2023/10/28 11:01:09;;;;;;;13.50;4.80;;;11.20;99.90;;;;;;4980578;28;20523;-80
2023/10/28 11:03:37;;;;;;;10.82;4.70;;;11.20;99.90;;;;;;4960771;28;20046;-80
2023/10/28 11:06:03;;;;;;;11.93;4.47;;;11.20;99.90;;;;;;4983717;28;20487;-80
2023/10/28 11:08:29;;;;;;;12.43;4.07;;;11.20;99.90;;;;;;4983026;28;20518;-80
2023/10/28 11:10:54;;;;;;;10.93;4.38;;;11.20;99.90;;;;;;4979851;28;20141;-79
2023/10/28 11:13:22;;;;;;;11.18;4.72;;;11.30;99.90;;;;;;4981303;28;20045;-79
2023/10/28 11:15:49;;;;;;;13.85;5.10;;;11.30;99.90;;;;;;4983136;28;20558;-80
2023/10/28 11:18:15;;;;;;;14.85;4.68;;;11.40;99.90;;;;;;4978361;28;20482;-80
2023/10/28 11:20:42;;;;;;;12.45;4.45;;;11.30;99.90;;;;;;4968626;28;20046;-81
2023/10/28 11:23:08;;;;;;;15.93;5.00;;;11.40;99.90;;;;;;4962928;28;20042;-80
2023/10/28 11:25:35;;;;;;;12.25;4.38;;;11.40;99.90;;;;;;4966422;28;20064;-80
2023/10/28 11:28:09;;;;;;;13.38;4.38;;;11.40;99.90;;;;;;4969395;28;20339;-80
2023/10/28 11:30:34;;;;;;;10.18;4.15;;;11.50;99.90;;;;;;4971982;28;20129;-79
2023/10/28 11:33:09;;;;;;;9.68;4.18;;;11.70;99.90;;;;;;4970072;28;20517;-79
2023/10/28 11:35:35;;;;;;;12.02;3.65;;;11.50;99.90;;;;;;4967228;28;20581;-81
2023/10/28 11:38:02;;;;;;;11.15;3.95;;;11.50;99.90;;;;;;4968033;28;20115;-80
2023/10/28 11:40:28;;;;;;;9.88;3.95;;;11.50;99.90;;;;;;4958901;28;20042;-80
2023/10/28 11:42:54;;;;;;;9.90;3.78;;;11.50;99.90;;;;;;4981251;28;20089;-80
2023/10/28 11:45:23;;;;;;;12.00;4.07;;;11.50;99.90;;;;;;4969931;28;20046;-80
2023/10/28 11:47:53;;;;;;;10.55;4.28;;;11.60;99.90;;;;;;4984339;28;20099;-80
2023/10/28 11:50:18;;;;;;;13.45;3.90;;;11.60;99.90;;;;;;4981110;28;20362;-80
2023/10/28 11:52:45;;;;;;;11.45;4.10;;;11.60;99.90;;;;;;4978105;28;20132;-80
2023/10/28 11:55:11;;;;;;;13.77;4.28;;;11.50;99.90;;;;;;4977555;28;20506;-80
2023/10/28 11:57:37;;;;;;;11.60;4.00;;;11.60;99.90;;;;;;4980020;28;20053;-80
2023/10/28 12:00:04;;;;;;;11.13;3.63;;;11.60;99.90;;;;;;4981288;28;20160;-80
2023/10/28 12:02:30;;;;;;;11.82;3.25;;;11.60;99.90;;;;;;4976928;28;20403;-80
2023/10/28 12:04:56;;;;;;;11.43;3.42;;;11.60;99.90;;;;;;4962665;28;20050;-81
2023/10/28 12:07:21;;;;;;;11.00;3.92;;;11.60;99.90;;;;;;4963143;28;20135;-80
2023/10/28 12:09:47;;;;;;;10.52;3.63;;;11.60;99.90;;;;;;4982712;28;20050;-79
2023/10/28 12:12:13;;;;;;;17.02;3.58;;;11.60;99.90;;;;;;4979183;28;20550;-80
2023/10/28 12:14:40;;;;;;;10.13;3.92;;;12.20;99.90;;;;;;4981676;28;20065;-80
2023/10/28 12:17:06;;;;;;;11.30;3.90;;;11.60;99.90;;;;;;4979721;28;20065;-79
2023/10/28 12:19:32;;;;;;;9.70;3.20;;;11.60;99.90;;;;;;4962077;28;20042;-80
2023/10/28 12:21:58;;;;;;;17.67;3.60;;;11.70;99.90;;;;;;4971093;28;20378;-79
2023/10/28 12:24:24;;;;;;;11.38;3.55;;;11.70;99.90;;;;;;4962055;28;20045;-80
2023/10/28 12:26:53;;;;;;;9.82;3.75;;;11.70;99.90;;;;;;4971008;28;20438;-79
2023/10/28 12:29:18;;;;;;;10.23;3.05;;;11.70;99.90;;;;;;4973817;28;20718;-79
2023/10/28 12:31:44;;;;;;;11.77;3.33;;;11.70;99.90;;;;;;4956080;28;20046;-80
2023/10/28 12:34:11;;;;;;;11.60;3.42;;;11.80;99.90;;;;;;4969273;28;20409;-80
2023/10/28 12:36:37;;;;;;;11.90;3.47;;;11.80;99.90;;;;;;4972209;28;21711;-80